createdAt,value
2022-08-09T00:00:00.517Z,22.18
2022-08-09T00:02:32.970Z,22.09
2022-08-09T00:06:15.537Z,22.01
2022-08-09T00:07:48.422Z,22.08
2022-08-09T00:10:18.165Z,21.98
2022-08-09T00:12:51.535Z,21.91
2022-08-09T00:15:26.334Z,21.91
2022-08-09T00:18:05.425Z,21.90
2022-08-09T00:20:42.510Z,21.81
2022-08-09T00:23:58.045Z,21.77
2022-08-09T00:26:05.056Z,21.67
2022-08-09T00:28:34.767Z,21.65
2022-08-09T00:31:30.709Z,21.59
2022-08-09T00:33:53.130Z,21.56
2022-08-09T00:36:20.998Z,21.48
2022-08-09T00:38:50.876Z,21.42
2022-08-09T00:44:13.998Z,21.37
2022-08-09T00:44:24.525Z,21.36
2022-08-09T00:47:04.888Z,21.35
2022-08-09T00:49:32.956Z,21.31
2022-08-09T00:52:05.365Z,21.30
2022-08-09T00:54:36.382Z,21.31
2022-08-09T00:57:10.352Z,21.22
2022-08-09T00:59:41.067Z,21.13
2022-08-09T01:02:20.355Z,21.09
2022-08-09T01:04:54.386Z,21.06
2022-08-09T01:07:38.148Z,21.05
2022-08-09T01:10:25.958Z,20.94
2022-08-09T01:13:00.810Z,20.94
2022-08-09T01:15:32.199Z,20.88
2022-08-09T01:18:14.305Z,20.86
2022-08-09T01:20:56.852Z,20.84
2022-08-09T01:24:02.559Z,20.75
2022-08-09T01:26:53.076Z,20.74
2022-08-09T01:29:40.976Z,20.66
2022-08-09T01:32:30.959Z,20.59
2022-08-09T01:35:07.281Z,20.60
2022-08-09T01:38:09.610Z,20.59
2022-08-09T01:40:40.425Z,20.58
2022-08-09T01:43:10.688Z,20.55
2022-08-09T01:45:46.419Z,20.43
2022-08-09T01:48:16.760Z,20.38
2022-08-09T01:50:48.136Z,20.34
2022-08-09T01:53:19.401Z,20.30
2022-08-09T01:55:48.207Z,20.30
2022-08-09T01:58:17.397Z,20.36
2022-08-09T02:00:50.528Z,20.24
2022-08-09T02:03:19.431Z,20.20
2022-08-09T02:05:53.523Z,20.15
2022-08-09T02:08:38.484Z,20.14
2022-08-09T02:11:21.128Z,20.16
2022-08-09T02:14:06.325Z,20.05
2022-08-09T02:16:59.652Z,20.07
2022-08-09T02:19:24.337Z,19.99
2022-08-09T02:22:06.660Z,19.99
2022-08-09T02:24:38.277Z,19.94
2022-08-09T02:27:08.893Z,19.91
2022-08-09T02:29:40.185Z,19.87
2022-08-09T02:32:09.764Z,19.87
2022-08-09T02:34:41.572Z,19.91
2022-08-09T02:37:22.432Z,19.86
2022-08-09T02:40:01.570Z,19.83
2022-08-09T02:42:33.229Z,19.81
2022-08-09T02:45:06.675Z,19.80
2022-08-09T02:47:57.594Z,19.80
2022-08-09T02:50:25.569Z,19.79
2022-08-09T02:52:57.892Z,19.74
2022-08-09T02:55:46.440Z,19.78
2022-08-09T02:58:35.680Z,19.72
2022-08-09T03:01:06.244Z,19.65
2022-08-09T03:04:13.138Z,19.68
2022-08-09T03:06:25.100Z,19.59
2022-08-09T03:08:55.544Z,19.55
2022-08-09T03:11:29.637Z,19.66
2022-08-09T03:14:12.332Z,19.76
2022-08-09T03:16:45.286Z,19.72
2022-08-09T03:19:52.208Z,19.65
2022-08-09T03:22:03.770Z,19.67
2022-08-09T03:24:42.589Z,19.65
2022-08-09T03:27:21.453Z,19.59
2022-08-09T03:30:00.687Z,19.66
2022-08-09T03:32:31.628Z,19.51
2022-08-09T03:35:00.193Z,19.51
2022-08-09T03:37:55.213Z,19.45
2022-08-09T03:40:18.073Z,19.42
2022-08-09T03:42:45.842Z,19.38
2022-08-09T03:45:14.229Z,19.38
2022-08-09T03:47:46.778Z,19.43
2022-08-09T03:50:18.830Z,19.40
2022-08-09T03:52:56.004Z,19.38
2022-08-09T03:55:25.393Z,19.33
2022-08-09T03:58:09.767Z,19.37
2022-08-09T04:00:42.924Z,19.35
2022-08-09T04:03:19.725Z,19.32
2022-08-09T04:05:59.742Z,19.29
2022-08-09T04:08:32.119Z,19.25
2022-08-09T04:11:01.625Z,19.26
2022-08-09T04:14:37.065Z,19.26
2022-08-09T04:16:20.720Z,19.18
2022-08-09T04:18:51.297Z,19.15
2022-08-09T04:21:19.114Z,19.17
2022-08-09T04:23:53.833Z,19.13
2022-08-09T04:26:23.399Z,19.15
2022-08-09T04:28:52.414Z,19.15
2022-08-09T04:31:22.532Z,19.10
2022-08-09T04:33:56.992Z,19.13
2022-08-09T04:36:28.222Z,19.07
2022-08-09T04:38:57.342Z,19.10
2022-08-09T04:41:32.987Z,19.11
2022-08-09T04:44:06.380Z,19.05
2022-08-09T04:46:57.358Z,19.07
2022-08-09T04:49:40.420Z,19.06
2022-08-09T04:52:18.407Z,19.08
2022-08-09T04:54:51.346Z,19.07
2022-08-09T04:57:23.859Z,19.08
2022-08-09T04:59:52.692Z,19.12
2022-08-09T05:02:20.350Z,19.10
2022-08-09T05:04:55.239Z,19.12
2022-08-09T05:07:23.544Z,19.08
2022-08-09T05:09:51.793Z,19.03
2022-08-09T05:12:22.643Z,19.10
2022-08-09T05:14:50.286Z,19.11
2022-08-09T05:18:38.046Z,19.06
2022-08-09T05:20:09.790Z,19.14
2022-08-09T05:23:54.577Z,19.14
2022-08-09T05:25:32.260Z,19.21
2022-08-09T05:28:00.285Z,19.24
2022-08-09T05:30:38.112Z,19.20
2022-08-09T05:33:17.471Z,19.28
2022-08-09T05:35:48.805Z,19.36
2022-08-09T05:38:22.025Z,19.46
2022-08-09T05:40:52.479Z,19.44
2022-08-09T05:43:20.623Z,19.56
2022-08-09T05:45:55.594Z,19.56
2022-08-09T05:48:27.886Z,19.63
2022-08-09T05:51:43.124Z,19.63
2022-08-09T05:53:56.917Z,19.64
2022-08-09T05:56:26.056Z,19.72
2022-08-09T05:58:58.253Z,19.81
2022-08-09T06:01:26.813Z,19.84
2022-08-09T06:04:02.500Z,19.88
2022-08-09T06:06:35.298Z,19.93
2022-08-09T06:09:03.159Z,20.02
2022-08-09T06:11:41.151Z,20.05
2022-08-09T06:14:25.081Z,20.18
2022-08-09T06:16:52.730Z,20.24
2022-08-09T06:19:20.269Z,20.24
2022-08-09T06:21:51.406Z,20.31
2022-08-09T06:24:25.676Z,20.36
2022-08-09T06:26:53.160Z,20.55
2022-08-09T06:29:21.425Z,20.58
2022-08-09T06:32:36.171Z,20.63
2022-08-09T06:34:36.935Z,20.74
2022-08-09T06:37:08.901Z,20.80
2022-08-09T06:39:48.155Z,20.82
2022-08-09T06:42:28.536Z,20.83
2022-08-09T06:44:58.724Z,20.90
2022-08-09T06:47:30.322Z,20.92
2022-08-09T06:50:14.026Z,20.92
2022-08-09T06:52:47.267Z,20.95
2022-08-09T06:55:17.635Z,21.00
2022-08-09T06:58:02.755Z,21.13
2022-08-09T07:00:51.002Z,21.21
2022-08-09T07:03:19.846Z,21.25
2022-08-09T07:06:03.149Z,21.33
2022-08-09T07:08:34.074Z,21.35
2022-08-09T07:11:03.583Z,21.42
2022-08-09T07:13:31.476Z,21.48
2022-08-09T07:16:40.370Z,21.54
2022-08-09T07:19:00.622Z,21.57
2022-08-09T07:21:31.020Z,21.59
2022-08-09T07:24:03.086Z,21.62
2022-08-09T07:26:32.514Z,21.72
2022-08-09T07:29:08.410Z,21.81
2022-08-09T07:31:45.559Z,21.92
2022-08-09T07:34:20.819Z,21.99
2022-08-09T07:36:49.623Z,22.03
2022-08-09T07:39:20.200Z,22.15
2022-08-09T07:42:06.989Z,22.16
2022-08-09T07:44:51.996Z,22.25
2022-08-09T07:47:23.285Z,22.35
2022-08-09T07:50:04.624Z,22.42
2022-08-09T07:52:33.665Z,22.43
2022-08-09T07:55:08.944Z,22.45
2022-08-09T07:57:37.574Z,22.44
2022-08-09T08:00:20.840Z,22.45
2022-08-09T08:03:05.133Z,22.51
2022-08-09T08:05:54.077Z,22.62
2022-08-09T08:09:02.634Z,22.77
2022-08-09T08:12:11.233Z,22.86
2022-08-09T08:14:01.454Z,23.02
2022-08-09T08:16:31.697Z,23.11
2022-08-09T08:19:01.630Z,23.18
2022-08-09T08:21:31.111Z,23.17
2022-08-09T08:24:01.290Z,23.26
2022-08-09T08:26:41.875Z,23.25
2022-08-09T08:29:27.879Z,23.31
2022-08-09T08:32:03.121Z,23.45
2022-08-09T08:34:33.683Z,23.55
2022-08-09T08:37:02.367Z,23.58
2022-08-09T08:39:39.172Z,23.64
2022-08-09T08:42:13.979Z,23.73
2022-08-09T08:44:44.211Z,23.92
2022-08-09T08:47:15.563Z,23.93
2022-08-09T08:49:47.738Z,24.00
2022-08-09T08:52:48.620Z,24.17
2022-08-09T08:55:06.128Z,24.33
2022-08-09T08:57:36.100Z,24.37
2022-08-09T09:00:16.783Z,24.50
2022-08-09T09:02:52.968Z,24.53
2022-08-09T09:05:57.720Z,24.52
2022-08-09T09:08:29.857Z,24.72
2022-08-09T09:10:58.906Z,24.87
2022-08-09T09:13:41.736Z,24.85
2022-08-09T09:16:16.271Z,24.98
2022-08-09T09:18:48.771Z,24.96
2022-08-09T09:21:25.945Z,25.02
2022-08-09T09:23:58.322Z,25.23
2022-08-09T09:26:34.985Z,25.32
2022-08-09T09:29:11.355Z,25.32
2022-08-09T09:32:04.703Z,25.52
2022-08-09T09:34:39.260Z,25.53
2022-08-09T09:37:31.796Z,25.64
2022-08-09T09:39:59.817Z,25.71
2022-08-09T09:42:31.065Z,25.67
2022-08-09T09:45:01.201Z,25.77
2022-08-09T09:47:32.496Z,25.83
2022-08-09T09:50:15.206Z,25.83
2022-08-09T09:52:53.941Z,26.05
2022-08-09T09:55:32.698Z,26.06
2022-08-09T09:58:16.371Z,26.00
2022-08-09T10:00:54.321Z,26.21
2022-08-09T10:03:56.332Z,26.25
2022-08-09T10:06:28.510Z,26.36
2022-08-09T10:09:02.840Z,26.36
2022-08-09T10:11:59.442Z,26.35
2022-08-09T10:14:30.394Z,26.60
2022-08-09T10:17:17.200Z,26.65
2022-08-09T10:19:47.587Z,26.71
2022-08-09T10:22:32.652Z,26.72
2022-08-09T10:25:03.588Z,26.81
2022-08-09T10:27:56.331Z,26.97
2022-08-09T10:34:07.845Z,27.10
2022-08-09T10:36:04.482Z,27.20
2022-08-09T10:38:33.712Z,27.29
2022-08-09T10:41:02.080Z,27.38
2022-08-09T10:43:35.997Z,27.44
2022-08-09T10:46:43.564Z,27.43
2022-08-09T10:49:50.948Z,27.52
2022-08-09T10:52:37.239Z,27.52
2022-08-09T10:55:24.866Z,27.55
2022-08-09T10:57:55.814Z,27.45
2022-08-09T11:00:50.859Z,27.70
2022-08-09T11:03:51.314Z,27.65
2022-08-09T11:06:22.779Z,27.74
2022-08-09T11:08:53.417Z,27.88
2022-08-09T11:11:22.869Z,27.92
2022-08-09T11:14:31.817Z,27.91
2022-08-09T11:16:59.661Z,27.88
2022-08-09T11:20:09.773Z,28.01
2022-08-09T11:23:02.894Z,28.03
2022-08-09T11:25:47.449Z,28.10
2022-08-09T11:28:35.206Z,28.17
2022-08-09T11:31:43.146Z,28.32
2022-08-09T11:34:17.616Z,28.45
2022-08-09T11:36:46.135Z,28.39
2022-08-09T11:39:17.649Z,28.29
2022-08-09T11:41:45.821Z,28.37
2022-08-09T11:44:16.420Z,28.40
2022-08-09T11:46:59.515Z,28.49
2022-08-09T11:50:53.538Z,28.55
2022-08-09T11:54:01.452Z,28.50
2022-08-09T11:56:34.388Z,28.63
2022-08-09T11:59:12.018Z,28.69
2022-08-09T12:02:17.044Z,28.60
2022-08-09T12:04:37.185Z,28.57
2022-08-09T12:07:08.404Z,28.46
2022-08-09T12:09:36.582Z,28.42
2022-08-09T12:12:12.124Z,28.57
2022-08-09T12:15:08.153Z,28.69
2022-08-09T12:17:44.609Z,28.81
2022-08-09T12:20:21.672Z,28.90
2022-08-09T12:22:50.712Z,28.96
2022-08-09T12:25:34.725Z,28.94
2022-08-09T12:29:10.641Z,28.91
2022-08-09T12:31:00.294Z,28.98
2022-08-09T12:33:50.807Z,29.00
2022-08-09T12:36:31.317Z,29.00
2022-08-09T12:39:01.359Z,28.99
2022-08-09T12:41:33.716Z,28.97
2022-08-09T12:44:10.005Z,28.92
2022-08-09T12:46:41.537Z,28.97
2022-08-09T12:49:11.101Z,29.13
2022-08-09T12:52:00.150Z,29.19
2022-08-09T12:54:27.047Z,29.23
2022-08-09T12:56:54.899Z,29.18
2022-08-09T12:59:57.540Z,29.23
2022-08-09T13:02:12.574Z,29.25
2022-08-09T13:04:42.768Z,29.29
2022-08-09T13:07:11.369Z,29.26
2022-08-09T13:09:52.827Z,29.40
2022-08-09T13:12:27.914Z,29.49
2022-08-09T13:15:07.396Z,29.54
2022-08-09T13:18:03.846Z,29.52
2022-08-09T13:20:37.510Z,29.49
2022-08-09T13:24:16.694Z,29.49
2022-08-09T13:26:10.262Z,29.50
2022-08-09T13:28:39.665Z,29.47
2022-08-09T13:32:13.266Z,29.53
2022-08-09T13:33:58.023Z,29.64
2022-08-09T13:36:42.597Z,29.66
2022-08-09T13:41:50.542Z,29.82
2022-08-09T13:42:03.622Z,29.83
2022-08-09T13:44:32.139Z,29.82
2022-08-09T13:47:29.188Z,29.84
2022-08-09T13:49:58.151Z,29.79
2022-08-09T13:52:30.071Z,29.90
2022-08-09T13:55:00.953Z,29.98
2022-08-09T13:57:39.364Z,30.02
2022-08-09T14:00:12.114Z,30.03
2022-08-09T14:03:03.124Z,30.01
2022-08-09T14:05:58.910Z,30.15
2022-08-09T14:08:17.862Z,30.26
2022-08-09T14:10:52.034Z,30.38
2022-08-09T14:13:28.311Z,30.40
2022-08-09T14:16:10.846Z,30.40
2022-08-09T14:18:45.382Z,30.40
2022-08-09T14:21:20.565Z,30.34
2022-08-09T14:23:55.284Z,30.37
2022-08-09T14:26:32.143Z,30.27
2022-08-09T14:29:02.953Z,30.33
2022-08-09T14:31:36.341Z,30.29
2022-08-09T14:34:27.454Z,30.21
2022-08-09T14:37:01.820Z,30.38
2022-08-09T14:39:40.349Z,30.47
2022-08-09T14:42:40.721Z,30.49
2022-08-09T14:46:38.861Z,30.41
2022-08-09T14:47:57.293Z,30.26
2022-08-09T14:50:30.402Z,30.24
2022-08-09T14:52:58.641Z,30.34
2022-08-09T14:55:31.987Z,30.42
2022-08-09T14:58:01.240Z,30.49
2022-08-09T15:00:31.118Z,30.57
2022-08-09T15:03:00.134Z,30.62
2022-08-09T15:05:29.551Z,30.52
2022-08-09T15:07:58.365Z,30.42
2022-08-09T15:10:26.378Z,30.44
2022-08-09T15:12:53.935Z,30.62
2022-08-09T15:15:21.849Z,30.51
2022-08-09T15:17:52.296Z,30.47
2022-08-09T15:21:54.981Z,30.47
2022-08-09T15:24:02.246Z,30.50
2022-08-09T15:25:58.431Z,30.47
2022-08-09T15:28:27.876Z,30.52
2022-08-09T15:31:08.654Z,30.50
2022-08-09T15:34:17.599Z,30.31
2022-08-09T15:36:30.507Z,30.23
2022-08-09T15:39:00.383Z,30.26
2022-08-09T15:41:31.217Z,30.22
2022-08-09T15:43:59.987Z,30.28
2022-08-09T15:46:31.750Z,30.28
2022-08-09T15:49:22.928Z,30.29
2022-08-09T15:52:03.422Z,30.28
2022-08-09T15:54:44.560Z,30.31
2022-08-09T15:57:33.782Z,30.34
2022-08-09T16:00:06.204Z,30.45
2022-08-09T16:02:34.076Z,30.46
2022-08-09T16:05:02.389Z,30.46
2022-08-09T16:07:38.871Z,30.43
2022-08-09T16:10:11.254Z,30.46
2022-08-09T16:12:50.568Z,30.44
2022-08-09T16:16:04.590Z,30.36
2022-08-09T16:18:10.178Z,30.40
2022-08-09T16:20:38.419Z,30.43
2022-08-09T16:23:13.377Z,30.49
2022-08-09T16:25:43.973Z,30.59
2022-08-09T16:28:17.556Z,30.65
2022-08-09T16:30:59.379Z,30.53
2022-08-09T16:33:27.415Z,30.58
2022-08-09T16:36:00.905Z,30.39
2022-08-09T16:38:32.202Z,30.32
2022-08-09T16:41:04.263Z,30.26
2022-08-09T16:43:32.140Z,30.24
2022-08-09T16:45:59.636Z,30.17
2022-08-09T16:48:38.162Z,30.11
2022-08-09T16:51:16.925Z,30.05
2022-08-09T16:54:16.483Z,30.08
2022-08-09T16:56:36.328Z,30.15
2022-08-09T16:59:06.664Z,30.25
2022-08-09T17:01:38.811Z,30.27
2022-08-09T17:04:06.825Z,30.22
2022-08-09T17:07:09.238Z,30.19
2022-08-09T17:09:44.930Z,30.27
2022-08-09T17:12:11.290Z,30.28
2022-08-09T17:14:38.801Z,30.25
2022-08-09T17:17:26.079Z,30.25
2022-08-09T17:20:33.111Z,30.18
2022-08-09T17:22:50.067Z,30.06
2022-08-09T17:25:20.178Z,30.08
2022-08-09T17:27:54.511Z,30.13
2022-08-09T17:30:26.114Z,30.32
2022-08-09T17:32:54.965Z,30.34
2022-08-09T17:35:28.265Z,30.32
2022-08-09T17:38:12.141Z,30.27
2022-08-09T17:40:47.238Z,30.14
2022-08-09T17:43:34.201Z,30.07
2022-08-09T17:46:06.743Z,29.99
2022-08-09T17:48:38.327Z,29.87
2022-08-09T17:51:17.433Z,29.75
2022-08-09T17:53:51.433Z,29.59
2022-08-09T17:56:20.502Z,29.49
2022-08-09T17:58:49.550Z,29.48
2022-08-09T18:01:22.373Z,29.36
2022-08-09T18:03:51.129Z,29.37
2022-08-09T18:06:30.790Z,29.30
2022-08-09T18:09:01.559Z,29.25
2022-08-09T18:11:32.157Z,29.22
2022-08-09T18:14:22.043Z,29.19
2022-08-09T18:16:54.729Z,29.18
2022-08-09T18:20:57.267Z,29.10
2022-08-09T18:22:17.222Z,28.98
2022-08-09T18:24:45.960Z,28.98
2022-08-09T18:27:18.809Z,28.87
2022-08-09T18:30:41.255Z,28.84
2022-08-09T18:32:57.580Z,28.75
2022-08-09T18:35:47.990Z,28.67
2022-08-09T18:38:13.375Z,28.58
2022-08-09T18:40:41.397Z,28.53
2022-08-09T18:43:09.581Z,28.41
2022-08-09T18:46:49.687Z,28.36
2022-08-09T18:48:30.471Z,28.29
2022-08-09T18:51:03.668Z,28.19
2022-08-09T18:53:55.972Z,28.10
2022-08-09T18:56:27.080Z,28.04
2022-08-09T18:58:56.119Z,27.99
2022-08-09T19:01:25.637Z,27.92
2022-08-09T19:04:01.161Z,27.85
2022-08-09T19:06:38.577Z,27.78
2022-08-09T19:09:07.540Z,27.73
2022-08-09T19:11:38.240Z,27.69
2022-08-09T19:14:06.662Z,27.67
2022-08-09T19:16:37.871Z,27.56
2022-08-09T19:19:25.685Z,27.48
2022-08-09T19:22:04.901Z,27.48
2022-08-09T19:24:39.669Z,27.42
2022-08-09T19:27:22.827Z,27.32
2022-08-09T19:30:20.828Z,27.32
2022-08-09T19:32:45.052Z,27.24
2022-08-09T19:35:13.298Z,27.14
2022-08-09T19:37:56.163Z,27.14
2022-08-09T19:40:33.425Z,27.03
2022-08-09T19:43:05.181Z,26.94
2022-08-09T19:45:40.488Z,26.92
2022-08-09T19:48:11.922Z,26.83
2022-08-09T19:50:50.773Z,26.78
2022-08-09T19:53:20.719Z,26.74
2022-08-09T19:56:02.695Z,26.72
2022-08-09T19:58:34.095Z,26.71
2022-08-09T20:01:02.026Z,26.57
2022-08-09T20:04:11.034Z,26.51
2022-08-09T20:06:23.453Z,26.40
2022-08-09T20:08:57.731Z,26.31
2022-08-09T20:11:42.993Z,26.30
2022-08-09T20:14:15.711Z,26.27
2022-08-09T20:16:53.606Z,26.18
2022-08-09T20:19:47.440Z,26.19
2022-08-09T20:22:14.152Z,26.12
2022-08-09T20:24:42.849Z,26.05
2022-08-09T20:27:22.062Z,26.03
2022-08-09T20:29:49.758Z,25.99
2022-08-09T20:32:33.334Z,25.97
2022-08-09T20:35:08.554Z,25.97
2022-08-09T20:38:24.059Z,25.87
2022-08-09T20:40:30.511Z,25.83
2022-08-09T20:43:18.123Z,25.79
2022-08-09T20:46:00.491Z,25.75
2022-08-09T20:48:42.518Z,25.69
2022-08-09T20:51:19.425Z,25.64
2022-08-09T20:53:48.861Z,25.62
2022-08-09T20:56:21.516Z,25.62
2022-08-09T20:58:58.040Z,25.51
2022-08-09T21:01:35.267Z,25.46
2022-08-09T21:05:56.201Z,25.38
2022-08-09T21:07:11.466Z,25.26
2022-08-09T21:09:56.730Z,25.28
2022-08-09T21:15:14.659Z,25.17
2022-08-09T21:18:22.931Z,25.00
2022-08-09T21:20:35.514Z,25.03
2022-08-09T21:23:13.489Z,25.03
2022-08-09T21:25:59.561Z,24.87
2022-08-09T21:28:35.133Z,24.89
2022-08-09T21:31:17.471Z,24.80
2022-08-09T21:33:50.788Z,24.75
2022-08-09T21:36:21.175Z,24.71
2022-08-09T21:38:57.576Z,24.52
2022-08-09T21:42:04.789Z,24.61
2022-08-09T21:44:15.227Z,24.53
2022-08-09T21:47:00.796Z,24.34
2022-08-09T21:49:29.478Z,24.45
2022-08-09T21:52:14.724Z,24.37
2022-08-09T21:54:49.675Z,24.32
2022-08-09T21:57:25.432Z,24.26
2022-08-09T22:00:10.508Z,24.28
2022-08-09T22:02:38.159Z,24.22
2022-08-09T22:05:16.696Z,24.15
2022-08-09T22:07:51.805Z,24.10
2022-08-09T22:10:22.073Z,24.09
2022-08-09T22:12:51.013Z,24.00
2022-08-09T22:15:20.625Z,23.95
2022-08-09T22:17:50.800Z,23.95
2022-08-09T22:20:27.396Z,23.89
2022-08-09T22:22:59.344Z,23.85
2022-08-09T22:26:05.420Z,23.81
2022-08-09T22:28:32.940Z,23.76
2022-08-09T22:36:05.139Z,23.61
2022-08-09T22:44:13.463Z,23.38
2022-08-09T22:49:46.829Z,23.29
2022-08-09T23:05:29.866Z,23.16
2022-08-09T23:08:27.606Z,23.08
2022-08-09T23:41:45.025Z,22.70
2022-08-09T23:44:15.626Z,22.63
2022-08-09T23:46:44.620Z,22.58
2022-08-09T23:49:12.929Z,22.51
2022-08-09T23:51:42.428Z,22.47
2022-08-09T23:54:19.880Z,22.39
2022-08-09T23:56:56.071Z,22.44
2022-08-09T23:59:25.300Z,22.39
